Pirauba, Brazil
Current Conditions -  °F | °C
As of 5:00 PM on Monday 20 Oct 2014 (Local Time) from SBJF Reporting Station
Broken Clouds Broken Clouds  
Wind Chill: 70°   Ceiling: 2500
Heat Index: 70°   Visibility: 6mi
Dew Point: 63°   Wind: 14mph
Humidity: 78%   Direction: 190°S
Pressure: 30.03"   Gusts: NA
Location:  21.28°S, 43.03°W
Report Text: SBJF 202000Z 19012KT 9999 BKN025 BKN100 21/17 Q1017
Loading
Personal Weather Stations






























Interactive Weather Map
Tropical Storm Tracking
New forecast layout! Learn more

10-Day Weather Forecast

Advertisements
Track Severe Weather on mobile